sensor_id;sensor_type;location;lat;lon;timestamp;P1;durP1;ratioP1;P2;durP2;ratioP2
48861;SDS011;34681;49.188;-0.374;2023-02-23T00:00:13;10.03;;;7.03;;
48861;SDS011;34681;49.188;-0.374;2023-02-23T00:02:46;11.07;;;8.60;;
48861;SDS011;34681;49.188;-0.374;2023-02-23T00:05:12;10.40;;;7.40;;
48861;SDS011;34681;49.188;-0.374;2023-02-23T00:07:38;10.60;;;8.23;;
48861;SDS011;34681;49.188;-0.374;2023-02-23T00:10:08;13.43;;;9.47;;
48861;SDS011;34681;49.188;-0.374;2023-02-23T00:12:36;13.40;;;9.40;;
48861;SDS011;34681;49.188;-0.374;2023-02-23T00:15:01;11.63;;;7.67;;
48861;SDS011;34681;49.188;-0.374;2023-02-23T00:17:26;10.07;;;6.93;;
48861;SDS011;34681;49.188;-0.374;2023-02-23T00:19:54;9.77;;;6.70;;
48861;SDS011;34681;49.188;-0.374;2023-02-23T00:22:19;9.20;;;6.50;;
48861;SDS011;34681;49.188;-0.374;2023-02-23T00:24:45;8.00;;;6.10;;
48861;SDS011;34681;49.188;-0.374;2023-02-23T00:27:11;11.23;;;5.00;;
48861;SDS011;34681;49.188;-0.374;2023-02-23T00:29:42;6.23;;;5.10;;
48861;SDS011;34681;49.188;-0.374;2023-02-23T00:32:08;10.67;;;5.97;;
48861;SDS011;34681;49.188;-0.374;2023-02-23T00:34:34;6.23;;;5.10;;
48861;SDS011;34681;49.188;-0.374;2023-02-23T00:37:00;9.03;;;5.10;;
48861;SDS011;34681;49.188;-0.374;2023-02-23T00:39:26;7.53;;;5.83;;
48861;SDS011;34681;49.188;-0.374;2023-02-23T00:41:53;5.83;;;4.30;;
48861;SDS011;34681;49.188;-0.374;2023-02-23T00:44:20;6.10;;;4.00;;
48861;SDS011;34681;49.188;-0.374;2023-02-23T00:46:47;5.80;;;4.37;;
48861;SDS011;34681;49.188;-0.374;2023-02-23T00:49:15;8.53;;;3.13;;
48861;SDS011;34681;49.188;-0.374;2023-02-23T00:51:42;3.27;;;2.97;;
48861;SDS011;34681;49.188;-0.374;2023-02-23T00:54:09;5.27;;;3.57;;
48861;SDS011;34681;49.188;-0.374;2023-02-23T00:56:37;5.10;;;3.73;;
48861;SDS011;34681;49.188;-0.374;2023-02-23T00:59:02;5.30;;;3.17;;
48861;SDS011;34681;49.188;-0.374;2023-02-23T01:01:28;8.87;;;3.47;;
48861;SDS011;34681;49.188;-0.374;2023-02-23T01:03:53;6.27;;;3.70;;
48861;SDS011;34681;49.188;-0.374;2023-02-23T01:06:19;7.53;;;4.13;;
48861;SDS011;34681;49.188;-0.374;2023-02-23T01:08:45;5.53;;;3.63;;
48861;SDS011;34681;49.188;-0.374;2023-02-23T01:11:19;6.37;;;4.10;;
48861;SDS011;34681;49.188;-0.374;2023-02-23T01:13:46;5.00;;;3.40;;
48861;SDS011;34681;49.188;-0.374;2023-02-23T01:16:16;5.37;;;3.90;;
48861;SDS011;34681;49.188;-0.374;2023-02-23T01:18:43;4.60;;;4.17;;
48861;SDS011;34681;49.188;-0.374;2023-02-23T01:21:16;7.93;;;4.20;;
48861;SDS011;34681;49.188;-0.374;2023-02-23T01:23:44;4.43;;;3.90;;
48861;SDS011;34681;49.188;-0.374;2023-02-23T01:26:16;4.17;;;3.40;;
48861;SDS011;34681;49.188;-0.374;2023-02-23T01:28:47;10.33;;;3.83;;
48861;SDS011;34681;49.188;-0.374;2023-02-23T01:31:15;5.00;;;3.70;;
48861;SDS011;34681;49.188;-0.374;2023-02-23T01:33:41;5.20;;;3.90;;
48861;SDS011;34681;49.188;-0.374;2023-02-23T01:36:06;4.73;;;3.93;;
48861;SDS011;34681;49.188;-0.374;2023-02-23T01:38:32;7.57;;;4.00;;
48861;SDS011;34681;49.188;-0.374;2023-02-23T01:40:57;8.30;;;4.10;;
48861;SDS011;34681;49.188;-0.374;2023-02-23T01:43:23;4.30;;;3.07;;
48861;SDS011;34681;49.188;-0.374;2023-02-23T01:45:54;7.13;;;4.20;;
48861;SDS011;34681;49.188;-0.374;2023-02-23T01:48:21;5.53;;;3.80;;
48861;SDS011;34681;49.188;-0.374;2023-02-23T01:51:08;4.43;;;3.80;;
48861;SDS011;34681;49.188;-0.374;2023-02-23T01:53:38;4.73;;;3.60;;
48861;SDS011;34681;49.188;-0.374;2023-02-23T01:56:07;6.50;;;3.53;;
48861;SDS011;34681;49.188;-0.374;2023-02-23T01:58:39;6.30;;;3.20;;
48861;SDS011;34681;49.188;-0.374;2023-02-23T02:01:09;12.00;;;4.20;;
48861;SDS011;34681;49.188;-0.374;2023-02-23T02:03:40;7.70;;;3.50;;
48861;SDS011;34681;49.188;-0.374;2023-02-23T02:06:11;5.67;;;3.47;;
48861;SDS011;34681;49.188;-0.374;2023-02-23T02:08:39;4.07;;;3.67;;
48861;SDS011;34681;49.188;-0.374;2023-02-23T02:11:11;6.30;;;3.60;;
48861;SDS011;34681;49.188;-0.374;2023-02-23T02:13:50;7.77;;;3.63;;
48861;SDS011;34681;49.188;-0.374;2023-02-23T02:16:54;6.77;;;4.07;;
48861;SDS011;34681;49.188;-0.374;2023-02-23T02:44:17;5.30;;;3.27;;
48861;SDS011;34681;49.188;-0.374;2023-02-23T02:47:18;8.00;;;3.00;;
48861;SDS011;34681;49.188;-0.374;2023-02-23T02:52:34;7.30;;;3.03;;
48861;SDS011;34681;49.188;-0.374;2023-02-23T02:55:25;5.27;;;3.33;;
48861;SDS011;34681;49.188;-0.374;2023-02-23T02:57:58;7.93;;;3.00;;
48861;SDS011;34681;49.188;-0.374;2023-02-23T03:00:28;3.97;;;2.67;;
48861;SDS011;34681;49.188;-0.374;2023-02-23T03:03:27;3.30;;;2.97;;
48861;SDS011;34681;49.188;-0.374;2023-02-23T03:06:17;4.43;;;2.80;;
48861;SDS011;34681;49.188;-0.374;2023-02-23T03:09:18;3.67;;;2.93;;
48861;SDS011;34681;49.188;-0.374;2023-02-23T03:12:09;3.13;;;2.67;;
48861;SDS011;34681;49.188;-0.374;2023-02-23T03:15:05;2.87;;;2.33;;
48861;SDS011;34681;49.188;-0.374;2023-02-23T03:18:19;3.50;;;3.10;;
48861;SDS011;34681;49.188;-0.374;2023-02-23T03:21:20;3.47;;;2.70;;
48861;SDS011;34681;49.188;-0.374;2023-02-23T03:24:26;6.47;;;3.73;;
48861;SDS011;34681;49.188;-0.374;2023-02-23T03:27:22;2.80;;;2.60;;
48861;SDS011;34681;49.188;-0.374;2023-02-23T03:30:33;4.87;;;3.10;;
48861;SDS011;34681;49.188;-0.374;2023-02-23T03:33:35;2.53;;;2.37;;
48861;SDS011;34681;49.188;-0.374;2023-02-23T03:36:29;4.90;;;3.03;;
48861;SDS011;34681;49.188;-0.374;2023-02-23T03:39:28;4.60;;;3.03;;
48861;SDS011;34681;49.188;-0.374;2023-02-23T03:42:26;3.10;;;2.67;;
48861;SDS011;34681;49.188;-0.374;2023-02-23T03:45:15;5.30;;;3.17;;
48861;SDS011;34681;49.188;-0.374;2023-02-23T03:48:03;7.70;;;2.93;;
48861;SDS011;34681;49.188;-0.374;2023-02-23T03:50:52;5.47;;;3.33;;
48861;SDS011;34681;49.188;-0.374;2023-02-23T03:54:01;5.07;;;2.50;;
48861;SDS011;34681;49.188;-0.374;2023-02-23T03:56:43;3.37;;;3.07;;
48861;SDS011;34681;49.188;-0.374;2023-02-23T03:59:32;4.13;;;3.83;;
48861;SDS011;34681;49.188;-0.374;2023-02-23T04:02:20;3.67;;;3.43;;
48861;SDS011;34681;49.188;-0.374;2023-02-23T04:05:10;4.30;;;3.50;;
48861;SDS011;34681;49.188;-0.374;2023-02-23T04:08:01;3.97;;;2.80;;
48861;SDS011;34681;49.188;-0.374;2023-02-23T04:10:49;3.67;;;3.00;;
48861;SDS011;34681;49.188;-0.374;2023-02-23T04:13:40;3.80;;;2.57;;
48861;SDS011;34681;49.188;-0.374;2023-02-23T04:16:10;4.20;;;3.00;;
48861;SDS011;34681;49.188;-0.374;2023-02-23T04:18:37;3.20;;;2.50;;
48861;SDS011;34681;49.188;-0.374;2023-02-23T04:21:04;4.00;;;2.90;;
48861;SDS011;34681;49.188;-0.374;2023-02-23T04:23:31;3.10;;;2.53;;
48861;SDS011;34681;49.188;-0.374;2023-02-23T04:25:56;3.43;;;2.73;;
48861;SDS011;34681;49.188;-0.374;2023-02-23T04:28:22;3.53;;;2.43;;
48861;SDS011;34681;49.188;-0.374;2023-02-23T04:30:49;3.07;;;2.77;;
48861;SDS011;34681;49.188;-0.374;2023-02-23T04:33:16;3.90;;;2.43;;
48861;SDS011;34681;49.188;-0.374;2023-02-23T04:35:42;3.70;;;2.97;;
48861;SDS011;34681;49.188;-0.374;2023-02-23T04:38:07;3.57;;;2.60;;
48861;SDS011;34681;49.188;-0.374;2023-02-23T04:40:33;3.07;;;2.60;;
48861;SDS011;34681;49.188;-0.374;2023-02-23T04:42:59;2.53;;;2.43;;
48861;SDS011;34681;49.188;-0.374;2023-02-23T04:45:25;4.37;;;2.40;;
48861;SDS011;34681;49.188;-0.374;2023-02-23T04:47:50;4.50;;;2.67;;
48861;SDS011;34681;49.188;-0.374;2023-02-23T04:50:16;3.83;;;2.93;;
48861;SDS011;34681;49.188;-0.374;2023-02-23T04:52:43;3.43;;;2.50;;
48861;SDS011;34681;49.188;-0.374;2023-02-23T04:55:12;8.20;;;4.60;;
48861;SDS011;34681;49.188;-0.374;2023-02-23T04:57:41;3.23;;;2.60;;
48861;SDS011;34681;49.188;-0.374;2023-02-23T05:00:07;4.10;;;2.70;;
48861;SDS011;34681;49.188;-0.374;2023-02-23T05:02:33;4.83;;;2.73;;
48861;SDS011;34681;49.188;-0.374;2023-02-23T05:04:58;4.10;;;2.93;;
48861;SDS011;34681;49.188;-0.374;2023-02-23T05:07:24;8.77;;;4.03;;
48861;SDS011;34681;49.188;-0.374;2023-02-23T05:09:49;10.93;;;7.80;;
48861;SDS011;34681;49.188;-0.374;2023-02-23T05:12:14;14.90;;;13.57;;
48861;SDS011;34681;49.188;-0.374;2023-02-23T05:14:40;31.07;;;27.97;;
48861;SDS011;34681;49.188;-0.374;2023-02-23T05:17:06;42.93;;;39.03;;
48861;SDS011;34681;49.188;-0.374;2023-02-23T05:19:32;25.33;;;23.23;;
48861;SDS011;34681;49.188;-0.374;2023-02-23T05:21:57;13.07;;;12.07;;
48861;SDS011;34681;49.188;-0.374;2023-02-23T05:24:23;6.50;;;6.00;;
48861;SDS011;34681;49.188;-0.374;2023-02-23T05:26:49;5.20;;;4.73;;
48861;SDS011;34681;49.188;-0.374;2023-02-23T05:29:15;4.83;;;4.50;;
48861;SDS011;34681;49.188;-0.374;2023-02-23T05:31:41;3.87;;;3.57;;
48861;SDS011;34681;49.188;-0.374;2023-02-23T05:34:06;4.50;;;3.70;;
48861;SDS011;34681;49.188;-0.374;2023-02-23T05:36:32;6.97;;;5.27;;
48861;SDS011;34681;49.188;-0.374;2023-02-23T05:38:57;7.33;;;5.63;;
48861;SDS011;34681;49.188;-0.374;2023-02-23T05:41:22;7.40;;;5.13;;
48861;SDS011;34681;49.188;-0.374;2023-02-23T05:43:48;10.93;;;8.60;;
48861;SDS011;34681;49.188;-0.374;2023-02-23T05:46:24;12.53;;;11.23;;
48861;SDS011;34681;49.188;-0.374;2023-02-23T05:48:54;14.77;;;12.13;;
48861;SDS011;34681;49.188;-0.374;2023-02-23T05:51:21;33.53;;;24.97;;
48861;SDS011;34681;49.188;-0.374;2023-02-23T05:53:46;41.80;;;29.97;;
48861;SDS011;34681;49.188;-0.374;2023-02-23T05:56:13;38.10;;;30.40;;
48861;SDS011;34681;49.188;-0.374;2023-02-23T05:58:50;35.90;;;27.77;;
48861;SDS011;34681;49.188;-0.374;2023-02-23T06:01:17;34.23;;;24.67;;
48861;SDS011;34681;49.188;-0.374;2023-02-23T06:03:43;22.97;;;17.20;;
48861;SDS011;34681;49.188;-0.374;2023-02-23T06:06:10;18.30;;;10.90;;
48861;SDS011;34681;49.188;-0.374;2023-02-23T06:08:35;6.20;;;5.60;;
48861;SDS011;34681;49.188;-0.374;2023-02-23T06:11:01;7.73;;;5.73;;
48861;SDS011;34681;49.188;-0.374;2023-02-23T06:13:27;6.73;;;4.67;;
48861;SDS011;34681;49.188;-0.374;2023-02-23T06:15:53;6.33;;;5.77;;
48861;SDS011;34681;49.188;-0.374;2023-02-23T06:18:18;17.37;;;11.00;;
48861;SDS011;34681;49.188;-0.374;2023-02-23T06:20:45;16.23;;;13.00;;
48861;SDS011;34681;49.188;-0.374;2023-02-23T06:23:10;15.97;;;13.43;;
48861;SDS011;34681;49.188;-0.374;2023-02-23T06:25:36;15.00;;;11.90;;
48861;SDS011;34681;49.188;-0.374;2023-02-23T06:28:01;10.67;;;7.27;;
48861;SDS011;34681;49.188;-0.374;2023-02-23T06:30:27;7.23;;;6.53;;
48861;SDS011;34681;49.188;-0.374;2023-02-23T06:32:52;6.37;;;5.63;;
48861;SDS011;34681;49.188;-0.374;2023-02-23T06:35:17;6.97;;;5.07;;
48861;SDS011;34681;49.188;-0.374;2023-02-23T06:37:43;8.80;;;5.70;;
48861;SDS011;34681;49.188;-0.374;2023-02-23T06:40:09;9.00;;;6.13;;
48861;SDS011;34681;49.188;-0.374;2023-02-23T06:42:34;6.47;;;5.87;;
48861;SDS011;34681;49.188;-0.374;2023-02-23T06:45:01;6.27;;;5.67;;
48861;SDS011;34681;49.188;-0.374;2023-02-23T06:47:27;5.20;;;4.70;;
48861;SDS011;34681;49.188;-0.374;2023-02-23T06:49:52;6.30;;;4.47;;
48861;SDS011;34681;49.188;-0.374;2023-02-23T06:52:18;10.97;;;4.97;;
48861;SDS011;34681;49.188;-0.374;2023-02-23T06:54:44;4.50;;;4.20;;
48861;SDS011;34681;49.188;-0.374;2023-02-23T06:57:09;3.60;;;3.30;;
48861;SDS011;34681;49.188;-0.374;2023-02-23T06:59:35;5.40;;;4.83;;
48861;SDS011;34681;49.188;-0.374;2023-02-23T07:02:02;5.50;;;5.03;;
48861;SDS011;34681;49.188;-0.374;2023-02-23T07:04:29;8.27;;;4.60;;
48861;SDS011;34681;49.188;-0.374;2023-02-23T07:06:55;6.43;;;5.63;;
48861;SDS011;34681;49.188;-0.374;2023-02-23T07:09:21;9.60;;;5.40;;
48861;SDS011;34681;49.188;-0.374;2023-02-23T07:11:46;5.70;;;5.10;;
48861;SDS011;34681;49.188;-0.374;2023-02-23T07:14:12;6.47;;;5.80;;
48861;SDS011;34681;49.188;-0.374;2023-02-23T07:16:37;7.43;;;5.90;;
48861;SDS011;34681;49.188;-0.374;2023-02-23T07:19:04;5.40;;;4.77;;
48861;SDS011;34681;49.188;-0.374;2023-02-23T07:21:30;7.10;;;5.70;;
48861;SDS011;34681;49.188;-0.374;2023-02-23T07:23:57;5.23;;;4.73;;
48861;SDS011;34681;49.188;-0.374;2023-02-23T07:26:23;8.20;;;4.70;;
48861;SDS011;34681;49.188;-0.374;2023-02-23T07:28:48;4.13;;;3.73;;
48861;SDS011;34681;49.188;-0.374;2023-02-23T07:31:14;5.70;;;3.83;;
48861;SDS011;34681;49.188;-0.374;2023-02-23T07:33:40;5.70;;;3.87;;
48861;SDS011;34681;49.188;-0.374;2023-02-23T07:36:05;4.20;;;3.20;;
48861;SDS011;34681;49.188;-0.374;2023-02-23T07:38:31;4.20;;;3.80;;
48861;SDS011;34681;49.188;-0.374;2023-02-23T07:40:57;4.73;;;4.30;;
48861;SDS011;34681;49.188;-0.374;2023-02-23T07:43:22;7.10;;;4.80;;
48861;SDS011;34681;49.188;-0.374;2023-02-23T07:45:48;6.30;;;4.10;;
48861;SDS011;34681;49.188;-0.374;2023-02-23T07:48:15;6.10;;;5.47;;
48861;SDS011;34681;49.188;-0.374;2023-02-23T07:50:40;8.47;;;5.07;;
48861;SDS011;34681;49.188;-0.374;2023-02-23T07:53:06;6.03;;;5.10;;
48861;SDS011;34681;49.188;-0.374;2023-02-23T07:55:32;7.90;;;5.30;;
48861;SDS011;34681;49.188;-0.374;2023-02-23T07:57:57;9.00;;;4.80;;
48861;SDS011;34681;49.188;-0.374;2023-02-23T08:00:23;6.20;;;5.20;;
48861;SDS011;34681;49.188;-0.374;2023-02-23T08:02:49;5.60;;;5.17;;
48861;SDS011;34681;49.188;-0.374;2023-02-23T08:05:17;5.07;;;4.57;;
48861;SDS011;34681;49.188;-0.374;2023-02-23T08:07:43;7.27;;;4.90;;
48861;SDS011;34681;49.188;-0.374;2023-02-23T08:10:09;8.80;;;4.77;;
48861;SDS011;34681;49.188;-0.374;2023-02-23T08:12:35;6.50;;;4.70;;
48861;SDS011;34681;49.188;-0.374;2023-02-23T08:15:00;5.77;;;5.27;;
48861;SDS011;34681;49.188;-0.374;2023-02-23T08:17:27;6.07;;;5.10;;
48861;SDS011;34681;49.188;-0.374;2023-02-23T08:19:52;10.07;;;5.70;;
48861;SDS011;34681;49.188;-0.374;2023-02-23T08:22:18;7.00;;;4.87;;
48861;SDS011;34681;49.188;-0.374;2023-02-23T08:24:43;10.13;;;4.90;;
48861;SDS011;34681;49.188;-0.374;2023-02-23T08:27:08;5.17;;;4.67;;
48861;SDS011;34681;49.188;-0.374;2023-02-23T08:29:34;5.07;;;4.60;;
48861;SDS011;34681;49.188;-0.374;2023-02-23T08:32:02;6.73;;;4.80;;
48861;SDS011;34681;49.188;-0.374;2023-02-23T08:34:28;5.93;;;4.63;;
48861;SDS011;34681;49.188;-0.374;2023-02-23T08:36:54;6.33;;;4.70;;
48861;SDS011;34681;49.188;-0.374;2023-02-23T08:39:19;7.50;;;4.87;;
48861;SDS011;34681;49.188;-0.374;2023-02-23T08:41:45;6.10;;;5.17;;
48861;SDS011;34681;49.188;-0.374;2023-02-23T08:44:11;7.93;;;5.43;;
48861;SDS011;34681;49.188;-0.374;2023-02-23T08:46:36;10.37;;;5.23;;
48861;SDS011;34681;49.188;-0.374;2023-02-23T08:49:01;6.03;;;5.20;;
48861;SDS011;34681;49.188;-0.374;2023-02-23T08:51:28;6.53;;;4.80;;
48861;SDS011;34681;49.188;-0.374;2023-02-23T08:53:54;9.90;;;7.30;;
48861;SDS011;34681;49.188;-0.374;2023-02-23T08:56:21;14.93;;;6.00;;
48861;SDS011;34681;49.188;-0.374;2023-02-23T08:58:49;9.43;;;5.60;;
48861;SDS011;34681;49.188;-0.374;2023-02-23T09:01:17;5.23;;;4.73;;
48861;SDS011;34681;49.188;-0.374;2023-02-23T09:03:45;10.37;;;5.07;;
48861;SDS011;34681;49.188;-0.374;2023-02-23T09:06:12;5.80;;;4.60;;
48861;SDS011;34681;49.188;-0.374;2023-02-23T09:08:39;13.57;;;4.77;;
48861;SDS011;34681;49.188;-0.374;2023-02-23T09:11:05;4.80;;;4.40;;
48861;SDS011;34681;49.188;-0.374;2023-02-23T09:13:31;9.77;;;5.23;;
48861;SDS011;34681;49.188;-0.374;2023-02-23T09:15:56;7.13;;;4.10;;
48861;SDS011;34681;49.188;-0.374;2023-02-23T09:18:22;8.00;;;5.10;;
48861;SDS011;34681;49.188;-0.374;2023-02-23T09:20:51;6.93;;;5.30;;
48861;SDS011;34681;49.188;-0.374;2023-02-23T09:23:17;6.50;;;5.17;;
48861;SDS011;34681;49.188;-0.374;2023-02-23T09:25:43;7.10;;;5.07;;
48861;SDS011;34681;49.188;-0.374;2023-02-23T09:28:16;4.57;;;4.27;;
48861;SDS011;34681;49.188;-0.374;2023-02-23T09:30:44;7.43;;;6.07;;
48861;SDS011;34681;49.188;-0.374;2023-02-23T09:33:10;11.73;;;5.27;;
48861;SDS011;34681;49.188;-0.374;2023-02-23T09:35:36;7.43;;;5.20;;
48861;SDS011;34681;49.188;-0.374;2023-02-23T09:38:03;7.20;;;5.30;;
48861;SDS011;34681;49.188;-0.374;2023-02-23T09:40:35;8.23;;;5.70;;
48861;SDS011;34681;49.188;-0.374;2023-02-23T09:43:12;7.13;;;5.43;;
48861;SDS011;34681;49.188;-0.374;2023-02-23T09:45:45;9.03;;;6.10;;
48861;SDS011;34681;49.188;-0.374;2023-02-23T09:48:20;6.13;;;5.53;;
48861;SDS011;34681;49.188;-0.374;2023-02-23T09:50:49;5.47;;;4.80;;
48861;SDS011;34681;49.188;-0.374;2023-02-23T09:53:38;8.20;;;5.53;;
48861;SDS011;34681;49.188;-0.374;2023-02-23T09:56:24;5.53;;;5.00;;
48861;SDS011;34681;49.188;-0.374;2023-02-23T09:58:57;6.10;;;4.87;;
48861;SDS011;34681;49.188;-0.374;2023-02-23T10:01:42;7.03;;;5.50;;
48861;SDS011;34681;49.188;-0.374;2023-02-23T10:07:02;9.63;;;5.30;;
48861;SDS011;34681;49.188;-0.374;2023-02-23T10:12:10;7.20;;;5.67;;
48861;SDS011;34681;49.188;-0.374;2023-02-23T10:22:53;6.17;;;5.23;;
48861;SDS011;34681;49.188;-0.374;2023-02-23T10:25:24;6.33;;;4.90;;
48861;SDS011;34681;49.188;-0.374;2023-02-23T10:27:52;6.60;;;4.80;;
48861;SDS011;34681;49.188;-0.374;2023-02-23T10:35:17;5.23;;;4.73;;
48861;SDS011;34681;49.188;-0.374;2023-02-23T10:37:49;7.07;;;5.37;;
48861;SDS011;34681;49.188;-0.374;2023-02-23T10:40:16;8.80;;;7.70;;
48861;SDS011;34681;49.188;-0.374;2023-02-23T10:42:45;8.20;;;7.40;;
48861;SDS011;34681;49.188;-0.374;2023-02-23T10:45:18;8.80;;;7.07;;
48861;SDS011;34681;49.188;-0.374;2023-02-23T10:47:52;8.07;;;7.20;;
48861;SDS011;34681;49.188;-0.374;2023-02-23T10:50:22;7.70;;;7.00;;
48861;SDS011;34681;49.188;-0.374;2023-02-23T10:52:51;8.73;;;7.70;;
48861;SDS011;34681;49.188;-0.374;2023-02-23T11:00:49;15.77;;;10.93;;
48861;SDS011;34681;49.188;-0.374;2023-02-23T11:03:22;11.83;;;10.63;;
48861;SDS011;34681;49.188;-0.374;2023-02-23T11:05:56;12.57;;;10.77;;
48861;SDS011;34681;49.188;-0.374;2023-02-23T11:08:26;13.88;;;10.85;;
48861;SDS011;34681;49.188;-0.374;2023-02-23T11:11:00;12.13;;;11.03;;
48861;SDS011;34681;49.188;-0.374;2023-02-23T11:13:42;13.40;;;12.10;;
48861;SDS011;34681;49.188;-0.374;2023-02-23T11:18:47;15.13;;;13.63;;
48861;SDS011;34681;49.188;-0.374;2023-02-23T11:21:20;17.03;;;15.37;;
48861;SDS011;34681;49.188;-0.374;2023-02-23T11:23:49;16.00;;;14.30;;
48861;SDS011;34681;49.188;-0.374;2023-02-23T11:26:21;16.27;;;14.53;;
48861;SDS011;34681;49.188;-0.374;2023-02-23T11:28:57;18.70;;;15.30;;
48861;SDS011;34681;49.188;-0.374;2023-02-23T11:31:30;21.53;;;16.27;;
48861;SDS011;34681;49.188;-0.374;2023-02-23T11:33:59;21.33;;;19.10;;
48861;SDS011;34681;49.188;-0.374;2023-02-23T11:36:28;24.83;;;22.33;;
48861;SDS011;34681;49.188;-0.374;2023-02-23T11:41:29;22.47;;;20.20;;
48861;SDS011;34681;49.188;-0.374;2023-02-23T11:43:59;23.33;;;20.23;;
48861;SDS011;34681;49.188;-0.374;2023-02-23T11:46:26;22.17;;;19.87;;
48861;SDS011;34681;49.188;-0.374;2023-02-23T11:51:28;21.70;;;18.30;;
48861;SDS011;34681;49.188;-0.374;2023-02-23T11:54:01;22.77;;;20.43;;
48861;SDS011;34681;49.188;-0.374;2023-02-23T11:56:29;24.17;;;21.67;;
48861;SDS011;34681;49.188;-0.374;2023-02-23T11:58:58;27.17;;;24.47;;
48861;SDS011;34681;49.188;-0.374;2023-02-23T12:01:46;29.27;;;26.17;;
48861;SDS011;34681;49.188;-0.374;2023-02-23T12:04:28;28.43;;;25.57;;
48861;SDS011;34681;49.188;-0.374;2023-02-23T12:10:17;26.80;;;23.20;;
48861;SDS011;34681;49.188;-0.374;2023-02-23T12:12:54;30.53;;;24.40;;
48861;SDS011;34681;49.188;-0.374;2023-02-23T12:17:54;30.47;;;27.17;;
48861;SDS011;34681;49.188;-0.374;2023-02-23T12:20:25;34.37;;;26.93;;
48861;SDS011;34681;49.188;-0.374;2023-02-23T12:23:00;28.23;;;24.80;;
48861;SDS011;34681;49.188;-0.374;2023-02-23T12:34:11;24.90;;;21.93;;
48861;SDS011;34681;49.188;-0.374;2023-02-23T12:36:56;24.00;;;21.53;;
48861;SDS011;34681;49.188;-0.374;2023-02-23T12:39:53;24.70;;;20.70;;
48861;SDS011;34681;49.188;-0.374;2023-02-23T12:44:58;22.87;;;19.80;;
48861;SDS011;34681;49.188;-0.374;2023-02-23T13:01:49;15.23;;;13.57;;
48861;SDS011;34681;49.188;-0.374;2023-02-23T13:09:59;16.60;;;15.10;;
48861;SDS011;34681;49.188;-0.374;2023-02-23T13:12:41;16.27;;;14.77;;
48861;SDS011;34681;49.188;-0.374;2023-02-23T13:24:11;13.77;;;12.30;;
48861;SDS011;34681;49.188;-0.374;2023-02-23T13:29:36;10.50;;;9.57;;
48861;SDS011;34681;49.188;-0.374;2023-02-23T13:32:14;10.43;;;9.50;;
48861;SDS011;34681;49.188;-0.374;2023-02-23T13:34:43;10.40;;;9.30;;
48861;SDS011;34681;49.188;-0.374;2023-02-23T13:37:14;13.33;;;9.20;;
48861;SDS011;34681;49.188;-0.374;2023-02-23T13:42:52;9.20;;;7.53;;
48861;SDS011;34681;49.188;-0.374;2023-02-23T13:56:31;9.70;;;7.70;;
48861;SDS011;34681;49.188;-0.374;2023-02-23T13:59:06;8.93;;;7.60;;
48861;SDS011;34681;49.188;-0.374;2023-02-23T14:01:38;11.13;;;7.93;;
48861;SDS011;34681;49.188;-0.374;2023-02-23T14:04:40;9.17;;;8.37;;
48861;SDS011;34681;49.188;-0.374;2023-02-23T14:07:01;9.10;;;8.20;;
48861;SDS011;34681;49.188;-0.374;2023-02-23T14:09:38;10.20;;;8.87;;
48861;SDS011;34681;49.188;-0.374;2023-02-23T14:14:38;12.23;;;8.40;;
48861;SDS011;34681;49.188;-0.374;2023-02-23T14:17:51;13.70;;;7.67;;
48861;SDS011;34681;49.188;-0.374;2023-02-23T14:22:20;13.53;;;9.93;;
48861;SDS011;34681;49.188;-0.374;2023-02-23T14:24:46;8.17;;;7.37;;
48861;SDS011;34681;49.188;-0.374;2023-02-23T14:27:58;13.83;;;9.20;;
48861;SDS011;34681;49.188;-0.374;2023-02-23T14:33:35;10.70;;;9.60;;
48861;SDS011;34681;49.188;-0.374;2023-02-23T14:38:45;15.13;;;10.13;;
48861;SDS011;34681;49.188;-0.374;2023-02-23T14:41:19;13.30;;;10.90;;
48861;SDS011;34681;49.188;-0.374;2023-02-23T14:43:46;11.87;;;9.13;;
48861;SDS011;34681;49.188;-0.374;2023-02-23T14:46:18;14.07;;;10.63;;
48861;SDS011;34681;49.188;-0.374;2023-02-23T14:48:58;11.37;;;9.40;;
48861;SDS011;34681;49.188;-0.374;2023-02-23T14:51:26;11.67;;;9.97;;
48861;SDS011;34681;49.188;-0.374;2023-02-23T14:56:51;26.63;;;9.63;;
48861;SDS011;34681;49.188;-0.374;2023-02-23T14:59:22;12.00;;;10.07;;
48861;SDS011;34681;49.188;-0.374;2023-02-23T15:01:52;14.87;;;9.53;;
48861;SDS011;34681;49.188;-0.374;2023-02-23T15:04:22;10.87;;;9.73;;
48861;SDS011;34681;49.188;-0.374;2023-02-23T15:06:51;12.40;;;10.10;;
48861;SDS011;34681;49.188;-0.374;2023-02-23T15:12:02;15.03;;;10.13;;
48861;SDS011;34681;49.188;-0.374;2023-02-23T15:14:36;15.23;;;9.77;;
48861;SDS011;34681;49.188;-0.374;2023-02-23T15:17:02;14.33;;;9.40;;
48861;SDS011;34681;49.188;-0.374;2023-02-23T15:19:29;12.37;;;10.40;;
48861;SDS011;34681;49.188;-0.374;2023-02-23T15:21:58;17.17;;;10.63;;
48861;SDS011;34681;49.188;-0.374;2023-02-23T15:24:47;12.73;;;9.53;;
48861;SDS011;34681;49.188;-0.374;2023-02-23T15:27:16;17.83;;;9.27;;
48861;SDS011;34681;49.188;-0.374;2023-02-23T15:29:51;19.90;;;9.40;;
48861;SDS011;34681;49.188;-0.374;2023-02-23T15:34:42;19.27;;;10.27;;
48861;SDS011;34681;49.188;-0.374;2023-02-23T15:39:55;14.03;;;8.80;;
48861;SDS011;34681;49.188;-0.374;2023-02-23T15:42:40;18.63;;;9.20;;
48861;SDS011;34681;49.188;-0.374;2023-02-23T15:45:26;11.83;;;8.10;;
48861;SDS011;34681;49.188;-0.374;2023-02-23T15:48:04;11.37;;;8.00;;
48861;SDS011;34681;49.188;-0.374;2023-02-23T15:50:39;11.87;;;9.30;;
48861;SDS011;34681;49.188;-0.374;2023-02-23T15:53:07;16.57;;;8.30;;
48861;SDS011;34681;49.188;-0.374;2023-02-23T15:56:09;13.80;;;7.90;;
48861;SDS011;34681;49.188;-0.374;2023-02-23T15:58:39;10.40;;;7.03;;
48861;SDS011;34681;49.188;-0.374;2023-02-23T16:01:10;9.63;;;7.80;;
48861;SDS011;34681;49.188;-0.374;2023-02-23T16:03:37;11.23;;;7.80;;
48861;SDS011;34681;49.188;-0.374;2023-02-23T16:08:54;14.23;;;7.57;;
48861;SDS011;34681;49.188;-0.374;2023-02-23T16:11:21;12.30;;;8.10;;
48861;SDS011;34681;49.188;-0.374;2023-02-23T16:13:46;12.10;;;9.73;;
48861;SDS011;34681;49.188;-0.374;2023-02-23T16:16:15;12.30;;;10.70;;
48861;SDS011;34681;49.188;-0.374;2023-02-23T16:18:52;12.40;;;11.17;;
48861;SDS011;34681;49.188;-0.374;2023-02-23T16:21:25;13.87;;;11.63;;
48861;SDS011;34681;49.188;-0.374;2023-02-23T16:23:54;14.17;;;11.17;;
48861;SDS011;34681;49.188;-0.374;2023-02-23T16:29:20;17.23;;;13.77;;
48861;SDS011;34681;49.188;-0.374;2023-02-23T16:31:59;15.73;;;14.00;;
48861;SDS011;34681;49.188;-0.374;2023-02-23T16:34:31;24.03;;;14.27;;
48861;SDS011;34681;49.188;-0.374;2023-02-23T16:37:16;19.20;;;14.43;;
48861;SDS011;34681;49.188;-0.374;2023-02-23T16:39:42;20.50;;;16.23;;
48861;SDS011;34681;49.188;-0.374;2023-02-23T16:42:10;20.87;;;16.00;;
48861;SDS011;34681;49.188;-0.374;2023-02-23T16:44:57;23.97;;;16.60;;
48861;SDS011;34681;49.188;-0.374;2023-02-23T16:50:16;24.73;;;16.37;;
48861;SDS011;34681;49.188;-0.374;2023-02-23T16:52:50;24.43;;;15.93;;
48861;SDS011;34681;49.188;-0.374;2023-02-23T16:55:17;23.00;;;17.10;;
48861;SDS011;34681;49.188;-0.374;2023-02-23T16:57:50;20.20;;;17.27;;
48861;SDS011;34681;49.188;-0.374;2023-02-23T17:00:20;24.40;;;19.63;;
48861;SDS011;34681;49.188;-0.374;2023-02-23T17:02:47;26.30;;;17.07;;
48861;SDS011;34681;49.188;-0.374;2023-02-23T17:05:15;26.53;;;18.60;;
48861;SDS011;34681;49.188;-0.374;2023-02-23T17:07:44;25.23;;;20.17;;
48861;SDS011;34681;49.188;-0.374;2023-02-23T17:15:46;22.40;;;18.47;;
48861;SDS011;34681;49.188;-0.374;2023-02-23T17:18:17;22.20;;;18.50;;
48861;SDS011;34681;49.188;-0.374;2023-02-23T17:20:45;22.43;;;18.73;;
48861;SDS011;34681;49.188;-0.374;2023-02-23T17:23:11;21.27;;;18.50;;
48861;SDS011;34681;49.188;-0.374;2023-02-23T17:25:36;25.00;;;20.03;;
48861;SDS011;34681;49.188;-0.374;2023-02-23T17:28:02;23.90;;;20.50;;